Time;durP1;ratioP1;P1;durP2;ratioP2;P2;SDS_P1;SDS_P2;PMS_P1;PMS_P2;Temp;Humidity;BMP_temperature;BMP_pressure;BME280_temperature;BME280_humidity;BME280_pressure;Samples;Min_cycle;Max_cycle;Signal;HPM_P1;HPM_P2
2022/04/05 00:00:37;;;;;;;14.57;10.50;;;;;;;;;;5123246;28;20490;-80
2022/04/05 00:03:03;;;;;;;15.00;11.03;;;;;;;;;;5122724;28;20398;-79
2022/04/05 00:05:29;;;;;;;17.70;11.87;;;;;;;;;;5120104;28;20395;-80
2022/04/05 00:07:55;;;;;;;14.00;10.57;;;;;;;;;;5125291;28;20398;-79
2022/04/05 00:10:22;;;;;;;17.17;10.77;;;;;;;;;;5131249;28;20418;-79
2022/04/05 00:12:48;;;;;;;13.47;10.03;;;;;;;;;;5131664;28;20407;-79
2022/04/05 00:15:15;;;;;;;15.23;11.10;;;;;;;;;;5131783;28;20403;-79
2022/04/05 00:17:41;;;;;;;14.50;10.93;;;;;;;;;;5131775;28;20445;-80
2022/04/05 00:20:08;;;;;;;15.60;11.50;;;;;;;;;;5131226;28;20411;-80
2022/04/05 00:22:34;;;;;;;15.47;9.73;;;;;;;;;;5113084;28;20429;-80
2022/04/05 00:25:00;;;;;;;14.33;10.20;;;;;;;;;;5131870;28;20403;-79
2022/04/05 00:27:26;;;;;;;15.03;10.90;;;;;;;;;;5127146;28;20543;-80
2022/04/05 00:29:54;;;;;;;15.23;10.20;;;;;;;;;;5121048;28;20894;-81
2022/04/05 00:32:20;;;;;;;18.93;11.27;;;;;;;;;;5101745;28;20431;-81
2022/04/05 00:34:46;;;;;;;14.27;9.93;;;;;;;;;;5120211;28;20411;-80
2022/04/05 00:37:12;;;;;;;16.60;12.30;;;;;;;;;;5102013;28;20530;-80
2022/04/05 00:39:38;;;;;;;15.97;11.10;;;;;;;;;;5101308;28;20864;-80
2022/04/05 00:42:04;;;;;;;16.83;10.27;;;;;;;;;;5119837;28;20510;-81
2022/04/05 00:44:31;;;;;;;15.10;10.63;;;;;;;;;;5119746;28;20403;-81
2022/04/05 00:46:59;;;;;;;17.33;11.40;;;;;;;;;;5119773;28;20491;-81
2022/04/05 00:49:31;;;;;;;21.53;11.70;;;;;;;;;;5119545;28;20399;-81
2022/04/05 00:51:58;;;;;;;18.97;10.60;;;;;;;;;;5100838;28;20950;-81
2022/04/05 00:54:25;;;;;;;16.23;11.33;;;;;;;;;;5119424;28;20762;-80
2022/04/05 00:56:52;;;;;;;15.57;11.13;;;;;;;;;;5119377;28;20403;-80
2022/04/05 00:59:19;;;;;;;16.30;11.73;;;;;;;;;;5119282;28;20386;-80
2022/04/05 01:01:46;;;;;;;15.80;11.97;;;;;;;;;;5118102;28;20427;-81
2022/04/05 01:04:12;;;;;;;12.90;10.30;;;;;;;;;;5119052;28;20399;-81
2022/04/05 01:06:44;;;;;;;16.10;9.87;;;;;;;;;;5100258;28;20435;-80
2022/04/05 01:09:10;;;;;;;15.60;10.33;;;;;;;;;;5118278;28;20440;-81
2022/04/05 01:11:36;;;;;;;11.90;9.77;;;;;;;;;;5119202;28;20812;-80
2022/04/05 01:14:03;;;;;;;13.60;9.87;;;;;;;;;;5119006;28;20406;-81
2022/04/05 01:16:29;;;;;;;13.40;10.60;;;;;;;;;;5118657;28;20807;-81
2022/04/05 01:18:55;;;;;;;13.43;10.40;;;;;;;;;;5119213;28;20458;-80
2022/04/05 01:21:21;;;;;;;15.77;10.13;;;;;;;;;;5118507;28;20450;-80
2022/04/05 01:24:20;;;;;;;14.90;10.60;;;;;;;;;;5118566;28;20395;-81
2022/04/05 01:26:46;;;;;;;12.23;9.40;;;;;;;;;;5063425;28;20916;-80
2022/04/05 01:29:12;;;;;;;13.07;9.47;;;;;;;;;;5119337;28;20477;-80
2022/04/05 01:31:40;;;;;;;16.67;10.10;;;;;;;;;;5118615;28;20945;-80
2022/04/05 01:34:09;;;;;;;12.77;9.10;;;;;;;;;;5111168;28;20811;-82
2022/04/05 01:36:40;;;;;;;12.40;9.50;;;;;;;;;;5113673;28;20439;-81
2022/04/05 01:39:06;;;;;;;13.27;10.23;;;;;;;;;;5119785;28;20379;-81
2022/04/05 01:41:32;;;;;;;15.50;10.23;;;;;;;;;;5100810;28;20430;-81
2022/04/05 01:43:58;;;;;;;14.80;9.37;;;;;;;;;;5100865;28;20412;-80
2022/04/05 01:46:24;;;;;;;12.80;9.73;;;;;;;;;;5119069;28;20437;-80
2022/04/05 01:48:51;;;;;;;13.70;9.77;;;;;;;;;;5118627;28;20411;-81
2022/04/05 01:51:17;;;;;;;14.40;9.70;;;;;;;;;;5118684;28;20426;-80
2022/04/05 01:53:45;;;;;;;15.03;9.67;;;;;;;;;;5119211;28;20407;-81
2022/04/05 01:56:11;;;;;;;12.80;9.00;;;;;;;;;;5118833;28;20405;-81
2022/04/05 01:58:37;;;;;;;12.87;9.87;;;;;;;;;;5118073;28;20446;-81
2022/04/05 02:01:03;;;;;;;12.40;9.00;;;;;;;;;;5118412;28;20855;-81
2022/04/05 02:03:29;;;;;;;14.20;9.67;;;;;;;;;;5118928;28;20470;-81
2022/04/05 02:05:56;;;;;;;14.23;10.37;;;;;;;;;;5117764;28;20456;-80
2022/04/05 02:08:22;;;;;;;16.73;10.57;;;;;;;;;;5118091;28;20407;-80
2022/04/05 02:10:48;;;;;;;12.57;9.20;;;;;;;;;;5117077;28;20425;-80
2022/04/05 02:13:15;;;;;;;15.50;9.67;;;;;;;;;;5117421;28;20463;-81
2022/04/05 02:15:41;;;;;;;13.37;9.27;;;;;;;;;;5122382;28;20438;-80
2022/04/05 02:18:07;;;;;;;12.93;8.97;;;;;;;;;;5103133;28;20860;-80
2022/04/05 02:20:33;;;;;;;12.87;8.93;;;;;;;;;;5122106;28;20438;-80
2022/04/05 02:23:00;;;;;;;13.30;9.70;;;;;;;;;;5102702;28;20407;-79
2022/04/05 02:25:26;;;;;;;13.03;9.40;;;;;;;;;;5121959;28;20391;-80
2022/04/05 02:27:52;;;;;;;13.73;9.90;;;;;;;;;;5120987;28;20424;-79
2022/04/05 02:30:18;;;;;;;11.60;8.03;;;;;;;;;;5124790;28;20461;-79
2022/04/05 02:32:45;;;;;;;11.13;8.63;;;;;;;;;;5126467;28;20413;-80
2022/04/05 02:35:11;;;;;;;13.47;8.33;;;;;;;;;;5103616;28;20759;-80
2022/04/05 02:37:37;;;;;;;9.57;8.00;;;;;;;;;;5121198;28;20945;-80
2022/04/05 02:40:04;;;;;;;10.00;7.60;;;;;;;;;;5124132;28;20398;-80
2022/04/05 02:42:30;;;;;;;9.83;8.67;;;;;;;;;;5124519;28;20399;-80
2022/04/05 02:44:56;;;;;;;9.60;7.30;;;;;;;;;;5121052;28;20474;-80
2022/04/05 02:47:22;;;;;;;10.37;7.07;;;;;;;;;;5121181;28;20407;-80
2022/04/05 02:49:49;;;;;;;8.13;6.53;;;;;;;;;;5120778;28;20413;-79
2022/04/05 02:52:18;;;;;;;8.80;7.17;;;;;;;;;;5120724;28;20497;-80
2022/04/05 02:54:44;;;;;;;8.43;6.40;;;;;;;;;;5120385;28;20842;-80
2022/04/05 02:57:10;;;;;;;9.33;6.60;;;;;;;;;;5120872;28;20689;-80
2022/04/05 02:59:36;;;;;;;9.47;6.37;;;;;;;;;;5120310;28;20406;-80
2022/04/05 03:02:03;;;;;;;9.07;5.67;;;;;;;;;;5120450;28;20994;-80
2022/04/05 03:04:29;;;;;;;9.03;6.23;;;;;;;;;;5120566;28;20407;-80
2022/04/05 03:06:55;;;;;;;6.33;5.70;;;;;;;;;;5120465;28;20430;-80
2022/04/05 03:09:21;;;;;;;10.97;6.73;;;;;;;;;;5120677;28;20411;-80
2022/04/05 03:11:47;;;;;;;10.80;6.80;;;;;;;;;;5119041;28;20782;-80
2022/04/05 03:14:13;;;;;;;8.33;6.80;;;;;;;;;;5115462;28;20459;-80
2022/04/05 03:16:40;;;;;;;8.03;6.07;;;;;;;;;;5120484;28;20403;-80
2022/04/05 03:19:07;;;;;;;7.37;5.90;;;;;;;;;;5120791;28;20455;-80
2022/04/05 03:21:34;;;;;;;7.40;5.80;;;;;;;;;;5120105;28;20535;-79
2022/04/05 03:24:00;;;;;;;9.60;6.50;;;;;;;;;;5120426;28;20406;-79
2022/04/05 03:26:26;;;;;;;9.60;6.23;;;;;;;;;;5119506;28;20452;-80
2022/04/05 03:28:52;;;;;;;8.33;6.63;;;;;;;;;;5120761;28;20800;-79
2022/04/05 03:31:18;;;;;;;9.00;6.60;;;;;;;;;;5119992;28;20503;-80
2022/04/05 03:33:44;;;;;;;8.87;6.17;;;;;;;;;;5119506;28;20913;-79
2022/04/05 03:36:10;;;;;;;9.03;6.47;;;;;;;;;;5119740;28;20399;-80
2022/04/05 03:38:36;;;;;;;8.73;6.27;;;;;;;;;;5120119;28;20443;-80
2022/04/05 03:41:02;;;;;;;10.20;6.27;;;;;;;;;;5119706;28;20466;-80
2022/04/05 03:43:28;;;;;;;8.40;5.83;;;;;;;;;;5119925;28;20395;-80
2022/04/05 03:45:54;;;;;;;7.40;6.10;;;;;;;;;;5119617;28;20907;-80
2022/04/05 03:48:20;;;;;;;13.57;6.33;;;;;;;;;;5121053;28;20415;-80
2022/04/05 03:50:46;;;;;;;8.03;6.37;;;;;;;;;;5120572;28;20523;-81
2022/04/05 03:53:12;;;;;;;7.73;5.87;;;;;;;;;;5120271;28;20413;-80
2022/04/05 03:55:38;;;;;;;8.50;6.20;;;;;;;;;;5120978;28;20410;-80
2022/04/05 03:58:05;;;;;;;7.93;6.17;;;;;;;;;;5100895;28;20999;-81
2022/04/05 04:00:31;;;;;;;10.70;7.23;;;;;;;;;;5120499;28;20461;-80
2022/04/05 04:02:57;;;;;;;7.60;6.13;;;;;;;;;;5120249;28;20825;-80
2022/04/05 04:05:25;;;;;;;12.77;7.90;;;;;;;;;;5120610;28;20414;-80
2022/04/05 04:07:51;;;;;;;10.17;6.53;;;;;;;;;;5120474;28;20494;-80
2022/04/05 04:10:18;;;;;;;8.90;5.97;;;;;;;;;;5120141;28;20425;-80
2022/04/05 04:12:44;;;;;;;7.97;6.07;;;;;;;;;;5120613;28;20395;-81
2022/04/05 04:15:10;;;;;;;7.80;5.87;;;;;;;;;;5119746;28;20419;-80
2022/04/05 04:17:36;;;;;;;10.40;6.87;;;;;;;;;;5119485;28;20541;-80
2022/04/05 04:20:04;;;;;;;10.73;6.53;;;;;;;;;;5120385;28;20391;-81
2022/04/05 04:22:30;;;;;;;10.70;7.43;;;;;;;;;;5109480;22;20508;-87
2022/04/05 04:24:58;;;;;;;11.00;6.53;;;;;;;;;;5080233;28;20820;-87
2022/04/05 04:27:25;;;;;;;8.40;5.87;;;;;;;;;;5080452;28;20389;-88
2022/04/05 04:29:52;;;;;;;9.93;6.23;;;;;;;;;;5062010;28;20404;-88
2022/04/05 04:32:18;;;;;;;6.83;5.70;;;;;;;;;;5094728;28;20416;-87
2022/04/05 04:34:44;;;;;;;9.00;6.33;;;;;;;;;;5100211;28;20399;-87
2022/04/05 04:37:10;;;;;;;5.87;5.27;;;;;;;;;;5099847;28;20958;-88
2022/04/05 04:39:37;;;;;;;8.30;6.70;;;;;;;;;;5102301;28;20503;-87
2022/04/05 04:42:03;;;;;;;9.70;6.60;;;;;;;;;;5099520;28;20430;-87
2022/04/05 04:44:29;;;;;;;8.77;6.53;;;;;;;;;;5101768;28;20434;-87
2022/04/05 04:46:55;;;;;;;7.60;5.70;;;;;;;;;;5109553;28;20408;-87
2022/04/05 04:49:22;;;;;;;7.30;5.67;;;;;;;;;;5115891;28;20400;-88
2022/04/05 04:51:48;;;;;;;8.63;6.93;;;;;;;;;;5103619;28;20428;-88
2022/04/05 04:54:14;;;;;;;8.40;5.93;;;;;;;;;;5103087;28;20396;-87
2022/04/05 04:56:40;;;;;;;10.17;6.23;;;;;;;;;;5101217;28;20467;-87
2022/04/05 04:59:06;;;;;;;10.40;6.40;;;;;;;;;;5105325;28;20428;-87
2022/04/05 05:01:33;;;;;;;8.60;6.50;;;;;;;;;;5118362;28;20443;-88
2022/04/05 05:03:59;;;;;;;9.97;6.67;;;;;;;;;;5108622;28;20416;-87
2022/04/05 05:06:25;;;;;;;8.50;6.63;;;;;;;;;;5101146;28;20899;-87
2022/04/05 05:08:51;;;;;;;9.00;6.40;;;;;;;;;;5102102;28;20455;-88
2022/04/05 05:11:17;;;;;;;8.43;6.10;;;;;;;;;;5111274;28;20950;-89
2022/04/05 05:13:43;;;;;;;9.73;6.73;;;;;;;;;;5098426;28;20568;-88
2022/04/05 05:16:09;;;;;;;8.37;6.17;;;;;;;;;;5099353;28;20415;-87
2022/04/05 05:18:37;;;;;;;8.30;6.50;;;;;;;;;;5100455;28;20493;-87
2022/04/05 05:21:03;;;;;;;9.10;6.83;;;;;;;;;;5096946;28;20431;-87
2022/04/05 05:23:30;;;;;;;15.90;6.70;;;;;;;;;;5096775;28;20404;-87
2022/04/05 05:25:56;;;;;;;12.20;8.07;;;;;;;;;;5102134;28;20424;-88
2022/04/05 05:28:22;;;;;;;11.13;7.50;;;;;;;;;;5099723;28;20431;-88
2022/04/05 05:30:48;;;;;;;8.27;6.50;;;;;;;;;;5099104;28;20407;-87
2022/04/05 05:33:14;;;;;;;8.13;6.20;;;;;;;;;;5100043;28;20896;-88
2022/04/05 05:35:40;;;;;;;8.67;6.40;;;;;;;;;;5100215;28;20408;-87
2022/04/05 05:38:06;;;;;;;8.77;6.30;;;;;;;;;;5108516;28;20443;-86
2022/04/05 05:40:32;;;;;;;7.17;5.27;;;;;;;;;;5109943;28;20384;-86
2022/04/05 05:42:59;;;;;;;8.00;6.33;;;;;;;;;;5111640;28;20478;-88
2022/04/05 05:45:29;;;;;;;8.07;6.40;;;;;;;;;;5108851;28;20863;-87
2022/04/05 05:47:56;;;;;;;9.73;5.93;;;;;;;;;;5118143;28;20411;-89
2022/04/05 05:50:22;;;;;;;7.67;6.10;;;;;;;;;;5118453;28;20456;-86
2022/04/05 05:52:48;;;;;;;7.23;6.23;;;;;;;;;;5118212;28;20418;-87
2022/04/05 05:55:15;;;;;;;8.53;6.70;;;;;;;;;;5107279;28;20420;-87
2022/04/05 05:57:42;;;;;;;6.57;5.40;;;;;;;;;;5096647;28;20458;-86
2022/04/05 06:00:10;;;;;;;8.37;5.80;;;;;;;;;;5097683;28;20439;-87
2022/04/05 06:02:37;;;;;;;8.33;6.57;;;;;;;;;;5098846;28;20481;-87
2022/04/05 06:05:03;;;;;;;7.90;6.10;;;;;;;;;;5097700;28;20798;-87
2022/04/05 06:07:29;;;;;;;9.43;6.73;;;;;;;;;;5098135;28;20403;-88
2022/04/05 06:09:56;;;;;;;11.30;7.23;;;;;;;;;;5096427;28;20396;-88
2022/04/05 06:12:22;;;;;;;9.10;6.70;;;;;;;;;;5096829;28;20419;-87
2022/04/05 06:14:48;;;;;;;10.43;7.10;;;;;;;;;;5097261;28;20412;-88
2022/04/05 06:17:14;;;;;;;7.87;7.03;;;;;;;;;;5096613;28;20478;-87
2022/04/05 06:19:40;;;;;;;10.70;8.23;;;;;;;;;;5098373;28;20410;-88
2022/04/05 06:22:06;;;;;;;9.83;6.87;;;;;;;;;;5096885;28;20440;-88
2022/04/05 06:24:32;;;;;;;14.00;7.93;;;;;;;;;;5110327;28;20491;-88
2022/04/05 06:26:58;;;;;;;9.73;7.47;;;;;;;;;;5114160;28;20411;-88
2022/04/05 06:29:24;;;;;;;9.17;6.77;;;;;;;;;;5101764;28;20408;-88
2022/04/05 06:31:51;;;;;;;12.30;8.93;;;;;;;;;;5101009;28;20424;-88
2022/04/05 06:34:17;;;;;;;10.97;8.40;;;;;;;;;;5103838;28;20403;-88
2022/04/05 06:36:43;;;;;;;10.03;7.67;;;;;;;;;;5105980;28;20821;-89
2022/04/05 06:39:10;;;;;;;14.40;9.00;;;;;;;;;;5108752;28;20423;-88
2022/04/05 06:41:36;;;;;;;10.23;7.80;;;;;;;;;;5106908;28;20424;-88
2022/04/05 06:44:02;;;;;;;13.23;8.97;;;;;;;;;;5100594;28;20430;-87
2022/04/05 06:46:28;;;;;;;15.13;10.00;;;;;;;;;;5099979;28;20896;-87
2022/04/05 06:48:54;;;;;;;11.30;7.90;;;;;;;;;;5100429;28;20490;-87
2022/04/05 06:51:20;;;;;;;13.30;9.50;;;;;;;;;;5099976;28;20458;-87
2022/04/05 06:53:47;;;;;;;9.90;7.93;;;;;;;;;;5092449;28;20418;-87
2022/04/05 06:56:13;;;;;;;12.87;8.10;;;;;;;;;;5088342;28;20408;-87
2022/04/05 06:58:39;;;;;;;13.50;8.60;;;;;;;;;;5093370;28;20447;-87
2022/04/05 07:01:06;;;;;;;13.23;7.63;;;;;;;;;;5099422;28;20418;-88
2022/04/05 07:03:32;;;;;;;10.70;7.33;;;;;;;;;;5069780;28;20400;-88
2022/04/05 07:05:58;;;;;;;12.77;8.27;;;;;;;;;;5094444;28;20408;-84
2022/04/05 07:08:24;;;;;;;10.37;7.63;;;;;;;;;;5091504;28;20408;-87
2022/04/05 07:10:51;;;;;;;10.87;6.70;;;;;;;;;;5084879;28;20458;-87
2022/04/05 07:13:17;;;;;;;10.47;7.30;;;;;;;;;;5078488;28;20408;-86
2022/04/05 07:15:43;;;;;;;18.30;8.30;;;;;;;;;;5086104;28;20404;-87
2022/04/05 07:18:09;;;;;;;10.10;7.43;;;;;;;;;;5091738;28;20478;-87
2022/04/05 07:20:35;;;;;;;9.50;6.87;;;;;;;;;;5095401;28;20407;-87
2022/04/05 07:23:01;;;;;;;9.03;6.60;;;;;;;;;;5087457;28;20414;-87
2022/04/05 07:25:27;;;;;;;13.33;7.30;;;;;;;;;;5085218;28;20404;-87
2022/04/05 07:27:54;;;;;;;13.70;8.50;;;;;;;;;;5096365;28;20413;-88
2022/04/05 07:30:20;;;;;;;10.70;7.07;;;;;;;;;;5094197;28;20439;-87
2022/04/05 07:32:46;;;;;;;9.97;7.57;;;;;;;;;;5104334;28;20419;-86
2022/04/05 07:35:14;;;;;;;12.40;7.87;;;;;;;;;;5086761;28;20408;-88
2022/04/05 07:37:40;;;;;;;11.67;6.70;;;;;;;;;;5098358;28;20506;-87
2022/04/05 07:40:10;;;;;;;8.77;6.10;;;;;;;;;;5073007;28;20400;-85
2022/04/05 07:42:36;;;;;;;10.70;6.87;;;;;;;;;;5070354;28;21015;-88
2022/04/05 07:45:04;;;;;;;12.00;7.80;;;;;;;;;;5100465;28;20399;-87
2022/04/05 07:47:30;;;;;;;7.80;6.17;;;;;;;;;;5085551;28;20415;-87
2022/04/05 07:49:56;;;;;;;7.77;6.43;;;;;;;;;;5093748;28;20408;-87
2022/04/05 07:52:22;;;;;;;7.73;5.67;;;;;;;;;;5094224;28;20902;-86
2022/04/05 07:54:48;;;;;;;8.37;6.33;;;;;;;;;;5099271;28;20410;-85
2022/04/05 07:57:15;;;;;;;7.53;6.70;;;;;;;;;;5100973;28;20436;-86
2022/04/05 07:59:41;;;;;;;8.20;5.20;;;;;;;;;;5095287;28;20413;-87
2022/04/05 08:02:07;;;;;;;11.47;7.00;;;;;;;;;;5094736;28;20442;-88
2022/04/05 08:04:33;;;;;;;8.97;6.70;;;;;;;;;;5089190;28;20405;-87
2022/04/05 08:06:59;;;;;;;8.67;5.67;;;;;;;;;;5095212;28;20419;-88
2022/04/05 08:09:25;;;;;;;7.50;6.57;;;;;;;;;;5099279;28;20427;-89
2022/04/05 08:11:51;;;;;;;9.17;5.60;;;;;;;;;;5099038;28;20487;-86
2022/04/05 08:14:17;;;;;;;7.60;6.23;;;;;;;;;;5091929;28;20408;-85
2022/04/05 08:16:43;;;;;;;10.27;6.43;;;;;;;;;;5099142;28;20432;-86
2022/04/05 08:19:10;;;;;;;9.30;5.53;;;;;;;;;;5102445;28;20466;-87
2022/04/05 08:21:36;;;;;;;9.87;6.60;;;;;;;;;;5092650;28;20452;-86
2022/04/05 08:24:02;;;;;;;9.67;7.37;;;;;;;;;;5099830;28;20473;-86
2022/04/05 08:26:28;;;;;;;13.63;7.07;;;;;;;;;;5102211;28;20400;-86
2022/04/05 08:28:55;;;;;;;6.83;5.70;;;;;;;;;;5100472;28;20427;-84
2022/04/05 08:31:21;;;;;;;7.07;5.73;;;;;;;;;;5083022;28;20665;-85
2022/04/05 08:33:47;;;;;;;8.97;5.77;;;;;;;;;;5100243;28;20419;-88
2022/04/05 08:36:13;;;;;;;10.80;6.03;;;;;;;;;;5100660;28;20422;-85
2022/04/05 08:38:40;;;;;;;8.10;5.10;;;;;;;;;;5097330;28;20451;-86
2022/04/05 08:41:07;;;;;;;8.27;5.43;;;;;;;;;;5102141;28;20424;-88
2022/04/05 08:43:34;;;;;;;7.80;5.80;;;;;;;;;;5099271;28;20404;-87
2022/04/05 08:46:01;;;;;;;7.10;5.00;;;;;;;;;;5097368;28;20446;-89
2022/04/05 08:48:28;;;;;;;10.10;5.50;;;;;;;;;;5100033;28;20859;-87
2022/04/05 08:50:54;;;;;;;5.10;4.07;;;;;;;;;;5093490;28;20445;-87
2022/04/05 08:53:21;;;;;;;8.03;5.27;;;;;;;;;;5083908;28;20567;-87
2022/04/05 08:55:47;;;;;;;8.33;5.27;;;;;;;;;;5102026;28;20534;-88
2022/04/05 08:58:13;;;;;;;5.43;4.20;;;;;;;;;;5111148;28;20474;-87
2022/04/05 09:00:40;;;;;;;7.80;5.33;;;;;;;;;;5086642;28;20420;-86
2022/04/05 09:03:06;;;;;;;6.03;4.50;;;;;;;;;;5084087;28;20419;-88
2022/04/05 09:05:43;;;;;;;5.20;4.10;;;;;;;;;;5083802;28;20888;-88
2022/04/05 09:08:18;;;;;;;4.73;3.93;;;;;;;;;;5079496;28;21242;-87
2022/04/05 09:10:48;;;;;;;4.93;3.73;;;;;;;;;;5091649;28;20418;-88
2022/04/05 09:13:17;;;;;;;6.10;4.07;;;;;;;;;;5099388;28;20404;-86
2022/04/05 09:25:40;;;;;;;4.80;3.63;;;;;;;;;;5100790;28;20452;-87
2022/04/05 09:28:08;;;;;;;6.67;4.10;;;;;;;;;;4974156;28;20496;-88
2022/04/05 09:31:03;;;;;;;6.23;4.47;;;;;;;;;;5074201;28;20425;-87
2022/04/05 09:33:38;;;;;;;5.10;4.00;;;;;;;;;;5079851;28;20864;-87
2022/04/05 09:36:11;;;;;;;5.70;4.13;;;;;;;;;;5083023;28;20764;-86
2022/04/05 09:39:04;;;;;;;5.63;4.03;;;;;;;;;;5090412;28;20444;-88
2022/04/05 09:41:30;;;;;;;6.53;4.80;;;;;;;;;;5037345;28;20857;-86
2022/04/05 09:43:57;;;;;;;6.93;4.03;;;;;;;;;;5083573;28;20396;-87
2022/04/05 09:46:24;;;;;;;6.23;4.47;;;;;;;;;;5096654;28;20518;-87
2022/04/05 09:49:01;;;;;;;5.00;4.17;;;;;;;;;;5099297;28;20446;-87
2022/04/05 09:51:27;;;;;;;6.20;4.50;;;;;;;;;;5097202;28;20878;-87
2022/04/05 09:53:57;;;;;;;5.40;4.37;;;;;;;;;;5079734;28;20451;-87
2022/04/05 09:56:23;;;;;;;5.53;4.57;;;;;;;;;;5096680;28;20438;-88
2022/04/05 09:58:51;;;;;;;6.30;4.57;;;;;;;;;;5097246;28;20455;-88
2022/04/05 10:01:18;;;;;;;4.77;3.70;;;;;;;;;;5096617;28;20423;-87
2022/04/05 10:03:56;;;;;;;8.30;4.17;;;;;;;;;;5096965;28;20399;-87
2022/04/05 10:06:22;;;;;;;4.93;4.13;;;;;;;;;;5096608;28;20422;-89
2022/04/05 10:08:48;;;;;;;5.37;3.90;;;;;;;;;;5096340;28;20396;-87
2022/04/05 10:11:15;;;;;;;6.37;3.60;;;;;;;;;;5078600;28;20437;-87
2022/04/05 10:13:41;;;;;;;4.50;3.50;;;;;;;;;;5096632;28;20461;-88
2022/04/05 10:16:09;;;;;;;6.17;4.47;;;;;;;;;;5097150;28;20745;-88
2022/04/05 10:18:35;;;;;;;6.17;4.03;;;;;;;;;;5097560;28;20986;-89
2022/04/05 10:21:20;;;;;;;5.13;4.10;;;;;;;;;;5123548;22;20773;-85
2022/04/05 10:23:47;;;;;;;6.03;3.80;;;;;;;;;;5043166;28;20960;-85
2022/04/05 10:26:17;;;;;;;10.53;4.20;;;;;;;;;;5026505;28;20414;-85
2022/04/05 10:28:44;;;;;;;5.17;4.10;;;;;;;;;;5041520;28;20386;-84
2022/04/05 10:31:17;;;;;;;5.60;3.93;;;;;;;;;;5041250;28;20461;-85
2022/04/05 10:33:55;;;;;;;4.30;2.77;;;;;;;;;;5039403;28;20382;-85
2022/04/05 10:36:24;;;;;;;3.67;3.00;;;;;;;;;;5053373;28;20405;-85
2022/04/05 10:39:09;;;;;;;4.77;3.50;;;;;;;;;;5062642;28;20460;-85
2022/04/05 10:41:35;;;;;;;5.20;4.00;;;;;;;;;;5045964;28;20567;-85
2022/04/05 10:44:17;;;;;;;5.20;4.10;;;;;;;;;;5046719;28;20413;-85
2022/04/05 10:46:59;;;;;;;7.10;4.67;;;;;;;;;;5055135;28;20809;-85
2022/04/05 10:49:47;;;;;;;4.67;3.80;;;;;;;;;;5068326;28;20414;-85
2022/04/05 10:52:31;;;;;;;5.70;3.70;;;;;;;;;;5064758;28;20483;-85
2022/04/05 10:58:38;;;;;;;9.60;3.30;;;;;;;;;;4999505;28;20999;-85
2022/04/05 11:01:48;;;;;;;5.07;4.17;;;;;;;;;;5031092;28;20418;-84
2022/04/05 11:07:53;;;;;;;5.70;4.30;;;;;;;;;;5059352;28;20765;-85
2022/04/05 11:13:43;;;;;;;6.50;3.97;;;;;;;;;;5114682;22;20564;-85
2022/04/05 11:19:13;;;;;;;5.80;3.93;;;;;;;;;;5096744;28;20467;-84
2022/04/05 11:24:53;;;;;;;6.07;4.27;;;;;;;;;;5104714;28;20427;-84
2022/04/05 11:27:44;;;;;;;3.90;3.50;;;;;;;;;;5103139;28;20415;-83
2022/04/05 11:30:37;;;;;;;4.10;3.20;;;;;;;;;;5102642;28;20952;-84
2022/04/05 11:33:15;;;;;;;5.27;3.93;;;;;;;;;;5103178;28;20927;-84
2022/04/05 11:35:52;;;;;;;4.13;3.13;;;;;;;;;;5102919;28;20934;-85
2022/04/05 11:38:18;;;;;;;4.70;4.23;;;;;;;;;;5103490;28;20451;-84
2022/04/05 11:40:52;;;;;;;5.03;4.00;;;;;;;;;;5103013;28;20415;-84
2022/04/05 11:43:42;;;;;;;4.63;3.47;;;;;;;;;;5105960;28;20424;-85
2022/04/05 11:46:27;;;;;;;5.63;4.10;;;;;;;;;;5089479;28;20408;-86
2022/04/05 11:48:54;;;;;;;4.30;3.20;;;;;;;;;;5103993;28;20408;-85
2022/04/05 11:51:24;;;;;;;4.30;3.03;;;;;;;;;;5107537;28;20440;-84
2022/04/05 11:53:52;;;;;;;6.20;3.43;;;;;;;;;;5118803;28;20420;-84
2022/04/05 11:56:20;;;;;;;4.97;3.33;;;;;;;;;;5117294;28;20400;-84
2022/04/05 11:58:50;;;;;;;7.60;3.63;;;;;;;;;;5105079;28;20459;-83
2022/04/05 12:01:36;;;;;;;4.83;3.60;;;;;;;;;;5103363;28;20408;-82
2022/04/05 12:04:09;;;;;;;4.83;3.00;;;;;;;;;;5103164;28;20403;-83
2022/04/05 12:06:37;;;;;;;6.43;3.70;;;;;;;;;;5104153;28;20400;-82
2022/04/05 12:09:10;;;;;;;6.77;4.37;;;;;;;;;;5103019;28;20400;-82
2022/04/05 12:11:40;;;;;;;4.60;4.00;;;;;;;;;;5103888;28;20513;-82
2022/04/05 12:14:13;;;;;;;4.27;3.60;;;;;;;;;;5103209;28;20430;-82
2022/04/05 12:16:49;;;;;;;4.80;3.70;;;;;;;;;;5100457;28;20494;-80
2022/04/05 12:19:22;;;;;;;5.43;4.07;;;;;;;;;;5100058;28;20493;-81
2022/04/05 12:22:08;;;;;;;3.83;3.13;;;;;;;;;;5101992;28;20443;-82
2022/04/05 12:24:35;;;;;;;6.10;3.40;;;;;;;;;;5101424;28;20406;-82
2022/04/05 12:27:02;;;;;;;4.20;3.10;;;;;;;;;;5102339;28;20498;-82
2022/04/05 12:29:29;;;;;;;8.90;3.87;;;;;;;;;;5101013;28;20410;-83
2022/04/05 12:31:58;;;;;;;8.63;3.03;;;;;;;;;;5101072;28;20465;-84
2022/04/05 12:34:25;;;;;;;6.10;3.37;;;;;;;;;;5100986;28;20412;-82
2022/04/05 12:36:53;;;;;;;4.70;2.97;;;;;;;;;;5102155;28;20451;-84
2022/04/05 12:39:21;;;;;;;3.90;3.07;;;;;;;;;;5103684;28;20455;-84
2022/04/05 12:41:49;;;;;;;3.40;2.73;;;;;;;;;;5101789;28;20780;-85
2022/04/05 12:44:19;;;;;;;6.00;3.10;;;;;;;;;;5102989;28;20479;-84
2022/04/05 12:46:55;;;;;;;3.40;2.30;;;;;;;;;;5102990;28;20487;-84
2022/04/05 12:49:31;;;;;;;5.50;3.10;;;;;;;;;;5100669;28;20415;-82
2022/04/05 12:52:09;;;;;;;4.27;3.03;;;;;;;;;;5105148;28;20500;-85
2022/04/05 12:54:45;;;;;;;3.30;2.70;;;;;;;;;;5110035;28;20448;-84
2022/04/05 12:57:17;;;;;;;4.97;3.70;;;;;;;;;;5104485;28;20463;-86
2022/04/05 12:59:44;;;;;;;5.40;2.83;;;;;;;;;;5093193;28;20392;-84
2022/04/05 13:02:25;;;;;;;4.80;3.63;;;;;;;;;;5084047;28;20431;-84
2022/04/05 13:06:19;;;;;;;4.43;2.90;;;;;;;;;;5101133;28;20453;-84
2022/04/05 13:07:49;;;;;;;3.93;2.60;;;;;;;;;;5099360;28;20416;-84
2022/04/05 13:10:15;;;;;;;4.67;3.33;;;;;;;;;;5083879;28;20399;-84
2022/04/05 13:12:42;;;;;;;7.20;3.50;;;;;;;;;;5100759;28;20481;-85
2022/04/05 13:15:12;;;;;;;4.60;3.40;;;;;;;;;;5101830;28;20446;-84
2022/04/05 13:17:38;;;;;;;4.33;3.23;;;;;;;;;;5100962;28;20438;-84
2022/04/05 13:20:25;;;;;;;5.03;3.40;;;;;;;;;;5103181;28;20931;-84
2022/04/05 13:23:01;;;;;;;7.50;3.03;;;;;;;;;;5099447;28;20439;-85
2022/04/05 13:25:34;;;;;;;4.87;3.00;;;;;;;;;;5121986;28;20433;-85
2022/04/05 13:28:02;;;;;;;3.03;2.67;;;;;;;;;;5122771;28;20411;-84
2022/04/05 13:30:29;;;;;;;5.40;3.70;;;;;;;;;;5104407;28;20917;-85
2022/04/05 13:33:07;;;;;;;5.10;3.50;;;;;;;;;;5103485;28;20909;-84
2022/04/05 13:35:36;;;;;;;5.07;3.47;;;;;;;;;;5103303;28;20434;-86
2022/04/05 13:38:03;;;;;;;4.13;3.20;;;;;;;;;;5101466;28;20479;-85
2022/04/05 13:40:29;;;;;;;6.70;3.60;;;;;;;;;;5116028;28;20236;-84
2022/04/05 13:42:55;;;;;;;4.90;3.57;;;;;;;;;;5113463;28;20451;-87
2022/04/05 13:45:22;;;;;;;3.80;3.00;;;;;;;;;;5122254;28;20414;-85
2022/04/05 13:47:48;;;;;;;4.55;2.83;;;;;;;;;;5108411;28;20457;-86
2022/04/05 13:50:16;;;;;;;4.50;3.10;;;;;;;;;;5119096;28;20492;-84
2022/04/05 13:52:44;;;;;;;4.20;2.90;;;;;;;;;;5104954;27;20446;-85
2022/04/05 13:55:11;;;;;;;4.27;3.00;;;;;;;;;;5120507;28;20424;-85
2022/04/05 13:57:40;;;;;;;4.27;3.57;;;;;;;;;;5122478;28;20515;-87
2022/04/05 14:00:07;;;;;;;5.22;3.00;;;;;;;;;;5122555;28;20399;-84
2022/04/05 14:02:35;;;;;;;5.50;3.57;;;;;;;;;;5124111;28;20189;-82
2022/04/05 14:05:03;;;;;;;3.80;3.10;;;;;;;;;;5106297;28;20426;-83
2022/04/05 14:07:29;;;;;;;4.07;2.97;;;;;;;;;;5123030;28;20415;-83
2022/04/05 14:09:56;;;;;;;4.27;3.63;;;;;;;;;;5122536;28;20414;-82
2022/04/05 14:12:22;;;;;;;3.90;2.70;;;;;;;;;;5121843;28;20505;-83
2022/04/05 14:14:48;;;;;;;4.43;3.50;;;;;;;;;;5103500;28;20455;-82
2022/04/05 14:17:14;;;;;;;3.90;2.60;;;;;;;;;;5104466;28;20885;-81
2022/04/05 14:19:40;;;;;;;4.93;3.20;;;;;;;;;;5103420;28;20499;-82
2022/04/05 14:22:06;;;;;;;7.47;3.03;;;;;;;;;;5121457;28;20418;-81
2022/04/05 14:24:32;;;;;;;3.40;2.73;;;;;;;;;;5102166;28;20409;-83
2022/04/05 14:26:58;;;;;;;5.00;3.63;;;;;;;;;;5120357;28;20417;-82
2022/04/05 14:29:24;;;;;;;3.70;3.17;;;;;;;;;;5103170;28;20419;-83
2022/04/05 14:31:50;;;;;;;3.30;2.63;;;;;;;;;;5106984;28;20427;-79
2022/04/05 14:34:16;;;;;;;3.27;2.97;;;;;;;;;;5121985;28;20399;-85
2022/04/05 14:36:45;;;;;;;2.85;2.53;;;;;;;;;;5099565;28;20484;-85
2022/04/05 14:39:11;;;;;;;4.70;2.70;;;;;;;;;;5097339;28;20227;-83
2022/04/05 14:41:38;;;;;;;3.77;3.17;;;;;;;;;;5122501;28;20431;-81
2022/04/05 14:44:07;;;;;;;3.57;2.40;;;;;;;;;;5124345;28;20391;-83
2022/04/05 14:46:34;;;;;;;3.10;2.70;;;;;;;;;;5097225;28;20404;-85
2022/04/05 14:49:02;;;;;;;4.07;2.50;;;;;;;;;;5104133;28;20453;-82
2022/04/05 14:51:29;;;;;;;4.38;2.75;;;;;;;;;;5100953;28;20419;-84
2022/04/05 14:53:59;;;;;;;3.27;2.77;;;;;;;;;;5119891;28;20176;-84
2022/04/05 14:56:26;;;;;;;4.10;2.50;;;;;;;;;;5101439;28;20419;-85
2022/04/05 14:58:52;;;;;;;3.70;2.80;;;;;;;;;;5118950;28;20468;-85
2022/04/05 15:01:18;;;;;;;2.80;2.40;;;;;;;;;;5121089;28;20406;-86
2022/04/05 15:03:44;;;;;;;3.40;2.97;;;;;;;;;;5105388;28;20448;-83
2022/04/05 15:06:13;;;;;;;3.93;2.87;;;;;;;;;;5105119;28;20452;-83
2022/04/05 15:08:39;;;;;;;2.70;2.30;;;;;;;;;;5125250;28;20423;-85
2022/04/05 15:11:05;;;;;;;4.30;2.40;;;;;;;;;;5104973;28;20409;-82